Time;durP1;ratioP1;P1;durP2;ratioP2;P2;SDS_P1;SDS_P2;PMS_P1;PMS_P2;Temp;Humidity;BMP_temperature;BMP_pressure;BME280_temperature;BME280_humidity;BME280_pressure;Samples;Min_cycle;Max_cycle;Signal;HPM_P1;HPM_P2
2023/08/11 00:01:17;;;;;;;30.98;10.00;;;;;;;29.34;nan;97755.56;4974346;28;20055;-69
2023/08/11 00:03:46;;;;;;;44.40;10.40;;;;;;;29.30;nan;97771.00;4965974;28;20058;-69
2023/08/11 00:06:16;;;;;;;26.90;9.27;;;;;;;29.30;nan;97773.72;4961505;28;20047;-69
2023/08/11 00:08:45;;;;;;;34.83;10.25;;;;;;;29.32;nan;97771.47;4956235;28;20046;-69
2023/08/11 00:11:14;;;;;;;31.95;10.20;;;;;;;29.35;nan;97775.44;4976463;28;20113;-69
2023/08/11 00:13:44;;;;;;;32.28;10.02;;;;;;;29.36;nan;97775.13;4951979;28;20058;-69
2023/08/11 00:16:13;;;;;;;23.65;9.85;;;;;;;29.39;nan;97774.44;4960430;28;20505;-69
2023/08/11 00:18:43;;;;;;;27.38;10.80;;;;;;;29.39;nan;97770.91;4962027;28;20079;-69
2023/08/11 00:21:14;;;;;;;30.25;9.50;;;;;;;29.33;nan;97775.81;4977033;28;20049;-68
2023/08/11 00:23:44;;;;;;;28.08;9.50;;;;;;;29.32;nan;97774.22;4974060;28;20035;-70
2023/08/11 00:26:14;;;;;;;25.52;9.25;;;;;;;29.35;nan;97778.97;4957550;28;20042;-69
2023/08/11 00:28:44;;;;;;;30.73;10.18;;;;;;;29.30;nan;97778.38;4959494;28;20050;-69
2023/08/11 00:31:13;;;;;;;23.58;8.50;;;;;;;29.29;nan;97780.34;4960658;28;20074;-68
2023/08/11 00:33:46;;;;;;;24.50;9.68;;;;;;;29.30;nan;97773.72;4955749;28;20758;-67
2023/08/11 00:36:15;;;;;;;29.95;11.13;;;;;;;29.31;nan;97778.06;4961624;28;20497;-67
2023/08/11 00:38:45;;;;;;;34.00;10.48;;;;;;;29.34;nan;97787.53;4961853;28;20474;-68
2023/08/11 00:41:16;;;;;;;29.58;9.48;;;;;;;29.36;nan;97794.22;4977394;28;20382;-68
2023/08/11 00:43:45;;;;;;;26.80;9.85;;;;;;;29.33;nan;97794.91;4963366;28;20047;-68
2023/08/11 00:46:15;;;;;;;36.22;9.95;;;;;;;29.28;nan;97795.09;4957723;28;20043;-68
2023/08/11 00:48:47;;;;;;;34.35;11.10;;;;;;;29.29;nan;97795.88;4957459;28;20097;-67
2023/08/11 00:51:19;;;;;;;;;;;;;;;29.29;nan;97796.72;4958668;28;20459;-68
2023/08/11 00:53:50;;;;;;;29.52;9.63;;;;;;;29.30;nan;97798.28;4962524;28;19949;-68
2023/08/11 00:56:24;;;;;;;30.92;10.07;;;;;;;29.31;nan;97799.88;4960817;28;20089;-68
2023/08/11 00:58:55;;;;;;;37.25;11.20;;;;;;;29.31;nan;97805.34;4963082;28;20569;-68
2023/08/11 01:01:25;;;;;;;31.38;9.88;;;;;;;29.29;nan;97802.16;4957906;28;20089;-68
2023/08/11 01:03:54;;;;;;;28.33;10.32;;;;;;;29.26;nan;97802.78;4958254;28;20679;-68
2023/08/11 01:06:58;;;;;;;35.35;11.02;;;;;;;29.30;nan;97800.22;4963872;28;20047;-68
2023/08/11 01:09:30;;;;;;;31.25;10.30;;;;;;;29.27;nan;97801.66;4957267;28;20051;-68
2023/08/11 01:12:18;;;;;;;28.20;10.27;;;;;;;29.30;nan;97798.28;4959996;28;20047;-68
2023/08/11 01:15:04;;;;;;;27.98;11.18;;;;;;;29.32;nan;97803.41;4951725;28;20051;-68
2023/08/11 01:17:37;;;;;;;28.17;11.43;;;;;;;29.31;nan;97802.63;4952941;28;20042;-68
2023/08/11 01:20:15;;;;;;;28.27;10.35;;;;;;;29.35;nan;97795.34;4953097;28;20386;-69
2023/08/11 01:22:50;;;;;;;28.95;10.95;;;;;;;29.42;nan;97797.53;4974057;28;20052;-68
2023/08/11 01:25:20;;;;;;;28.25;9.90;;;;;;;29.45;nan;97811.31;4957683;28;20114;-69
2023/08/11 01:27:58;;;;;;;25.88;9.90;;;;;;;29.58;nan;97812.13;4965886;28;20070;-68
2023/08/11 01:30:30;;;;;;;33.83;11.75;;;;;;;29.64;nan;97805.31;4956257;28;20481;-68
2023/08/11 01:32:59;;;;;;;31.05;11.07;;;;;;;29.71;nan;97810.22;4955018;28;20129;-68
2023/08/11 01:35:28;;;;;;;32.20;9.55;;;;;;;29.78;nan;97810.47;4944319;28;20125;-67
2023/08/11 01:38:08;;;;;;;21.65;8.88;;;;;;;29.92;nan;97818.38;4961601;28;20046;-68
2023/08/11 01:40:39;;;;;;;28.40;10.25;;;;;;;30.01;nan;97821.75;4945728;28;20054;-68
2023/08/11 01:43:11;;;;;;;32.15;9.98;;;;;;;30.03;nan;97824.94;4943331;28;20492;-69
2023/08/11 01:45:43;;;;;;;35.97;12.93;;;;;;;30.02;nan;97824.16;4960783;28;20070;-69
2023/08/11 01:48:14;;;;;;;35.92;9.35;;;;;;;30.08;nan;97832.94;4947200;28;20054;-69
2023/08/11 01:50:44;;;;;;;25.52;8.48;;;;;;;30.22;nan;97827.94;4959808;28;20630;-68
2023/08/11 01:53:14;;;;;;;29.42;8.80;;;;;;;30.28;nan;97830.06;4941494;28;20567;-69
2023/08/11 01:55:48;;;;;;;29.83;9.50;;;;;;;30.31;nan;97826.69;4953644;28;20368;-68
2023/08/11 01:58:17;;;;;;;37.97;10.85;;;;;;;30.42;nan;97828.94;4961235;28;20043;-69
2023/08/11 02:00:47;;;;;;;32.05;9.27;;;;;;;30.46;nan;97835.31;4950681;28;20057;-68
2023/08/11 02:03:17;;;;;;;37.88;10.43;;;;;;;30.54;nan;97823.47;4954881;28;20051;-68
2023/08/11 02:05:47;;;;;;;34.97;8.60;;;;;;;30.66;nan;97828.94;4964275;28;20042;-68
2023/08/11 02:08:19;;;;;;;34.58;9.32;;;;;;;30.76;nan;97836.63;4958388;28;20054;-68
2023/08/11 02:10:49;;;;;;;25.02;9.43;;;;;;;30.76;nan;97837.44;4957468;28;20223;-68
2023/08/11 02:13:18;;;;;;;32.20;8.70;;;;;;;30.89;nan;97840.16;4938315;28;20670;-68
2023/08/11 02:15:47;;;;;;;28.42;9.07;;;;;;;30.96;nan;97841.16;4959177;28;20726;-69
2023/08/11 02:18:16;;;;;;;34.95;10.40;;;;;;;30.98;nan;97838.84;4959904;28;20065;-68
2023/08/11 02:20:46;;;;;;;32.38;10.57;;;;;;;31.04;nan;97848.44;4937785;28;20046;-69
2023/08/11 02:23:15;;;;;;;27.25;7.97;;;;;;;31.24;nan;97848.63;4953702;28;20133;-69
2023/08/11 02:25:44;;;;;;;21.52;8.32;;;;;;;31.67;nan;97845.94;4959935;28;20074;-69
2023/08/11 02:28:13;;;;;;;30.77;8.10;;;;;;;31.90;nan;97860.63;4956733;28;20043;-69
2023/08/11 02:30:43;;;;;;;28.77;8.80;;;;;;;32.11;nan;97863.13;4949414;28;20069;-69
2023/08/11 02:33:13;;;;;;;33.47;9.45;;;;;;;32.27;nan;97855.69;4960947;28;20061;-69
2023/08/11 02:35:43;;;;;;;27.00;8.73;;;;;;;32.38;nan;97862.22;4979576;28;20117;-69
2023/08/11 02:38:15;;;;;;;23.88;7.82;;;;;;;32.64;nan;97866.38;4953359;28;20121;-69
2023/08/11 02:40:45;;;;;;;27.53;7.83;;;;;;;32.93;nan;97866.63;4960413;28;20046;-69
2023/08/11 02:43:14;;;;;;;32.15;7.43;;;;;;;33.13;nan;97872.16;4956409;28;20042;-70
2023/08/11 02:45:43;;;;;;;23.48;7.63;;;;;;;32.92;nan;97875.25;4940873;28;20089;-69
2023/08/11 02:48:13;;;;;;;31.60;9.18;;;;;;;32.71;nan;97875.53;4978102;28;20042;-69
2023/08/11 02:50:43;;;;;;;23.50;7.75;;;;;;;32.88;nan;97880.63;4953801;28;20056;-69
2023/08/11 02:53:12;;;;;;;28.67;8.50;;;;;;;32.82;nan;97886.75;4958850;28;20050;-69
2023/08/11 02:55:41;;;;;;;25.27;8.85;;;;;;;32.64;nan;97877.34;4956531;28;20054;-69
2023/08/11 02:58:11;;;;;;;23.35;7.25;;;;;;;32.60;nan;97879.16;4964595;28;20052;-69
2023/08/11 03:00:41;;;;;;;27.50;7.78;;;;;;;32.66;nan;97878.59;4948102;28;20185;-69
2023/08/11 03:03:11;;;;;;;23.58;7.60;;;;;;;32.62;nan;97880.44;4960225;28;20053;-69
2023/08/11 03:05:43;;;;;;;21.58;7.30;;;;;;;32.66;nan;97888.75;4956258;28;20433;-69
2023/08/11 03:08:13;;;;;;;29.67;7.30;;;;;;;32.47;nan;97886.72;4956624;28;20070;-69
2023/08/11 03:10:42;;;;;;;25.50;8.40;;;;;;;32.49;nan;97884.41;4952126;28;20047;-69
2023/08/11 03:13:28;;;;;;;27.77;7.88;;;;;;;32.31;nan;97883.97;4941298;28;20073;-69
2023/08/11 03:15:59;;;;;;;31.00;9.50;;;;;;;32.32;nan;97890.25;4949608;28;20534;-69
2023/08/11 03:18:29;;;;;;;25.40;7.13;;;;;;;32.46;nan;97890.59;4963090;28;20046;-69
2023/08/11 03:21:02;;;;;;;30.42;9.27;;;;;;;32.35;nan;97890.34;4967196;28;20157;-71
2023/08/11 03:23:47;;;;;;;20.95;8.68;;;;;;;32.37;nan;97893.53;4959648;28;20066;-68
2023/08/11 03:26:19;;;;;;;23.98;7.32;;;;;;;32.41;nan;97885.38;4957735;28;20043;-68
2023/08/11 03:28:49;;;;;;;25.13;8.48;;;;;;;32.58;nan;97889.69;4963797;28;20046;-68
2023/08/11 03:31:19;;;;;;;34.65;8.57;;;;;;;32.68;nan;97898.22;4948515;28;20482;-69
2023/08/11 03:33:51;;;;;;;34.00;8.63;;;;;;;32.73;nan;97897.13;4963886;28;20039;-69
2023/08/11 03:36:21;;;;;;;33.92;8.48;;;;;;;32.59;nan;97894.81;4941040;28;20055;-69
2023/08/11 03:38:51;;;;;;;30.90;9.57;;;;;;;32.60;nan;97901.91;4954445;28;20443;-69
2023/08/11 03:41:20;;;;;;;26.35;7.95;;;;;;;32.64;nan;97902.81;4945038;28;20142;-70
2023/08/11 03:43:50;;;;;;;23.30;6.85;;;;;;;32.75;nan;97909.31;4956907;28;20505;-69
2023/08/11 03:46:19;;;;;;;29.50;8.73;;;;;;;32.78;nan;97899.59;4939287;28;20512;-68
2023/08/11 03:48:48;;;;;;;31.02;8.18;;;;;;;32.85;nan;97905.25;4957629;28;20080;-68
2023/08/11 03:51:19;;;;;;;26.05;7.88;;;;;;;32.86;nan;97904.09;4952271;28;20050;-68
2023/08/11 03:53:48;;;;;;;34.55;8.32;;;;;;;32.87;nan;97908.44;4957409;28;20137;-69
2023/08/11 03:56:18;;;;;;;30.55;8.60;;;;;;;33.00;nan;97903.63;4956330;28;20070;-69
2023/08/11 03:58:47;;;;;;;25.45;8.25;;;;;;;33.08;nan;97906.16;4961640;28;20047;-70
2023/08/11 04:01:17;;;;;;;26.35;7.40;;;;;;;33.16;nan;97899.69;4959168;28;20534;-70
2023/08/11 04:03:48;;;;;;;34.97;8.02;;;;;;;33.20;nan;97903.31;4964956;28;20042;-69
2023/08/11 04:06:18;;;;;;;27.17;8.55;;;;;;;33.24;nan;97904.16;4956836;28;20077;-68
2023/08/11 04:08:47;;;;;;;26.40;8.75;;;;;;;33.20;nan;97906.03;4968440;28;20053;-68
2023/08/11 04:11:16;;;;;;;29.50;7.97;;;;;;;33.17;nan;97904.03;4961663;28;20054;-68
2023/08/11 04:13:45;;;;;;;27.13;7.15;;;;;;;33.10;nan;97911.28;4962453;28;20046;-69
2023/08/11 04:16:15;;;;;;;29.88;7.18;;;;;;;33.12;nan;97908.97;4943094;28;20054;-69
2023/08/11 04:18:44;;;;;;;29.00;8.80;;;;;;;33.28;nan;97910.53;4958588;28;20054;-69
2023/08/11 04:21:15;;;;;;;31.75;8.35;;;;;;;33.36;nan;97906.00;4969824;28;20030;-69
2023/08/11 04:23:45;;;;;;;31.73;7.53;;;;;;;33.53;nan;97913.00;4962729;28;20125;-69
2023/08/11 04:26:14;;;;;;;24.48;7.35;;;;;;;33.70;nan;97921.63;4940399;28;20458;-69
2023/08/11 04:28:43;;;;;;;21.80;6.82;;;;;;;33.85;nan;97917.19;4977513;28;20573;-69
2023/08/11 04:31:16;;;;;;;24.52;7.72;;;;;;;33.80;nan;97921.03;4952048;28;20062;-69
2023/08/11 04:33:46;;;;;;;29.45;8.25;;;;;;;33.82;nan;97915.94;4972029;28;20126;-69
2023/08/11 04:36:15;;;;;;;30.50;8.55;;;;;;;33.88;nan;97915.66;4962477;28;20047;-69
2023/08/11 04:38:45;;;;;;;30.10;8.63;;;;;;;34.22;nan;97917.47;4958793;28;20042;-68
2023/08/11 04:41:15;;;;;;;25.83;7.82;;;;;;;34.30;nan;97934.91;4960111;28;20054;-68
2023/08/11 04:43:44;;;;;;;25.40;7.78;;;;;;;34.53;nan;97933.72;4947324;28;20121;-69
2023/08/11 04:46:14;;;;;;;27.80;7.38;;;;;;;34.69;nan;97922.59;4957424;28;20462;-69
2023/08/11 04:48:44;;;;;;;39.78;7.38;;;;;;;34.61;nan;97927.16;4947336;28;20066;-68
2023/08/11 04:51:14;;;;;;;27.17;6.97;;;;;;;34.89;nan;97921.31;4950534;28;20055;-70
2023/08/11 04:53:43;;;;;;;27.92;7.28;;;;;;;34.98;nan;97924.59;4977001;28;20469;-69
2023/08/11 04:56:13;;;;;;;24.40;7.15;;;;;;;34.98;nan;97919.09;4954635;28;20681;-69
2023/08/11 04:58:42;;;;;;;31.60;8.10;;;;;;;35.45;nan;97932.31;4952375;28;20054;-69
2023/08/11 05:01:12;;;;;;;24.75;7.75;;;;;;;35.41;nan;97923.22;4958227;28;20057;-69
2023/08/11 05:03:42;;;;;;;29.30;7.13;;;;;;;35.64;nan;97916.81;4943202;28;20066;-69
2023/08/11 05:06:12;;;;;;;27.48;7.55;;;;;;;35.62;nan;97917.19;4956411;28;20054;-69
2023/08/11 05:08:41;;;;;;;36.20;7.47;;;;;;;36.01;nan;97923.94;4960379;28;20055;-70
2023/08/11 05:11:11;;;;;;;29.20;6.63;;;;;;;35.75;nan;97918.56;4963055;28;20171;-69
2023/08/11 05:13:41;;;;;;;27.92;7.28;;;;;;;35.69;nan;97914.53;4958118;28;20094;-70
2023/08/11 05:16:10;;;;;;;25.58;6.53;;;;;;;35.80;nan;97915.47;4977647;28;20152;-69
2023/08/11 05:18:39;;;;;;;28.08;8.38;;;;;;;35.98;nan;97915.66;4975590;28;20069;-70
2023/08/11 05:21:13;;;;;;;24.35;7.03;;;;;;;36.42;nan;97919.25;4978600;28;20425;-70
2023/08/11 05:23:42;;;;;;;27.17;7.53;;;;;;;36.33;nan;97920.72;4973428;28;20129;-72
2023/08/11 05:26:12;;;;;;;22.70;6.32;;;;;;;36.30;nan;97921.47;4957920;28;20046;-71
2023/08/11 05:28:43;;;;;;;29.77;7.68;;;;;;;36.12;nan;97926.03;4953932;28;20711;-71
2023/08/11 05:31:12;;;;;;;28.33;7.75;;;;;;;36.04;nan;97925.94;4967254;28;20046;-71
2023/08/11 05:33:42;;;;;;;24.95;6.38;;;;;;;35.88;nan;97927.34;4955153;28;20077;-71
2023/08/11 05:36:11;;;;;;;22.02;6.65;;;;;;;36.40;nan;97918.81;4957635;28;20048;-71
2023/08/11 05:38:40;;;;;;;23.92;5.97;;;;;;;36.36;nan;97926.28;4978163;28;20062;-71
2023/08/11 05:41:10;;;;;;;27.17;7.60;;;;;;;36.74;nan;97921.44;4961119;28;20053;-71
2023/08/11 05:43:40;;;;;;;26.55;6.20;;;;;;;36.31;nan;97920.31;4952339;28;20054;-71
2023/08/11 05:46:10;;;;;;;23.92;5.97;;;;;;;36.47;nan;97929.09;4950522;28;20056;-71
2023/08/11 05:48:40;;;;;;;30.13;6.78;;;;;;;36.71;nan;97922.22;4946306;28;20045;-71
2023/08/11 05:51:09;;;;;;;20.73;5.97;;;;;;;36.85;nan;97925.88;4955617;28;20049;-72
2023/08/11 05:53:39;;;;;;;28.30;6.80;;;;;;;37.02;nan;97918.09;4980371;28;20039;-71
2023/08/11 05:56:08;;;;;;;24.73;6.75;;;;;;;36.86;nan;97927.47;4951879;28;20055;-71
2023/08/11 05:58:37;;;;;;;27.45;6.50;;;;;;;36.88;nan;97918.78;4974995;28;20074;-69
2023/08/11 06:01:06;;;;;;;19.17;6.70;;;;;;;36.84;nan;97923.50;4958148;28;20418;-68
2023/08/11 06:03:36;;;;;;;29.17;7.90;;;;;;;36.68;nan;97920.25;4624500;28;9999756;-72
2023/08/11 06:06:05;;;;;;;32.20;6.65;;;;;;;36.48;nan;97934.25;4957605;28;20054;-70
2023/08/11 06:08:35;;;;;;;27.13;6.30;;;;;;;36.41;nan;97928.69;4954959;28;20122;-73
2023/08/11 06:11:05;;;;;;;33.10;7.65;;;;;;;36.55;nan;97922.50;4953639;28;20050;-71
2023/08/11 06:13:34;;;;;;;30.63;6.38;;;;;;;36.54;nan;97931.94;4969173;28;20709;-71
2023/08/11 06:16:04;;;;;;;21.23;6.40;;;;;;;36.72;nan;97919.09;4956015;28;20074;-70
2023/08/11 06:18:33;;;;;;;33.05;6.82;;;;;;;36.28;nan;97924.63;4947782;28;20082;-70
2023/08/11 06:21:04;;;;;;;28.83;6.38;;;;;;;36.55;nan;97929.97;4951251;28;20136;-73
2023/08/11 06:23:34;;;;;;;30.75;7.55;;;;;;;36.58;nan;97927.22;4952156;28;20050;-71
2023/08/11 06:26:03;;;;;;;23.70;6.00;;;;;;;36.01;nan;97915.69;4936720;28;20144;-71
2023/08/11 06:28:33;;;;;;;25.33;8.05;;;;;;;36.11;nan;97916.97;4967652;28;20289;-73
2023/08/11 06:31:03;;;;;;;24.63;6.35;;;;;;;36.13;nan;97920.13;4963442;28;20058;-70
2023/08/11 06:33:34;;;;;;;35.22;6.55;;;;;;;36.52;nan;97914.16;4960135;28;20153;-69
2023/08/11 06:36:04;;;;;;;23.42;6.95;;;;;;;36.44;nan;97916.88;4963872;28;20108;-69
2023/08/11 06:38:34;;;;;;;33.17;7.53;;;;;;;36.26;nan;97909.63;4948697;28;20047;-71
2023/08/11 06:41:03;;;;;;;29.48;7.28;;;;;;;36.52;nan;97906.69;4964522;28;20058;-72
2023/08/11 06:43:33;;;;;;;30.33;6.70;;;;;;;36.34;nan;97911.25;4950448;28;20051;-69
2023/08/11 06:46:03;;;;;;;35.75;8.20;;;;;;;35.88;nan;97911.59;4930557;28;20042;-69
2023/08/11 06:48:32;;;;;;;31.70;7.18;;;;;;;36.03;nan;97910.56;4953658;28;20047;-69
2023/08/11 06:51:02;;;;;;;30.02;7.80;;;;;;;36.05;nan;97910.19;4955182;28;20435;-71
2023/08/11 06:53:31;;;;;;;28.80;6.57;;;;;;;35.93;nan;97900.25;4976275;28;20777;-70
2023/08/11 06:56:01;;;;;;;31.58;8.00;;;;;;;36.11;nan;97902.38;4974238;28;20546;-71
2023/08/11 06:58:30;;;;;;;25.38;6.80;;;;;;;35.95;nan;97902.59;4970864;28;20061;-72
2023/08/11 07:00:59;;;;;;;38.45;8.23;;;;;;;35.74;nan;97900.44;4969267;28;20457;-71
2023/08/11 07:03:29;;;;;;;26.85;6.93;;;;;;;35.53;nan;97900.16;4970073;28;20050;-70
2023/08/11 07:06:00;;;;;;;33.78;6.97;;;;;;;35.34;nan;97886.56;4966878;28;20609;-72
2023/08/11 07:08:30;;;;;;;23.60;6.73;;;;;;;35.41;nan;97895.69;4967707;28;20054;-69
2023/08/11 07:11:00;;;;;;;28.50;7.22;;;;;;;35.35;nan;97890.91;4971141;28;20302;-69
2023/08/11 07:13:29;;;;;;;24.05;6.60;;;;;;;35.61;nan;97888.06;4969666;28;20051;-68
2023/08/11 07:15:59;;;;;;;22.60;8.20;;;;;;;35.94;nan;97882.50;4950398;28;20058;-68
2023/08/11 07:18:28;;;;;;;30.02;6.80;;;;;;;35.81;nan;97880.41;4966793;28;20046;-69
2023/08/11 07:20:57;;;;;;;26.55;7.10;;;;;;;35.56;nan;97875.41;4968189;28;20053;-67
2023/08/11 07:23:27;;;;;;;28.20;7.15;;;;;;;35.53;nan;97878.13;4973704;28;20267;-67
2023/08/11 07:25:56;;;;;;;33.25;7.57;;;;;;;35.64;nan;97872.72;4972481;28;20057;-68
2023/08/11 07:28:26;;;;;;;26.13;6.28;;;;;;;35.80;nan;97876.88;4952079;28;20043;-67
2023/08/11 07:30:55;;;;;;;34.40;7.32;;;;;;;35.63;nan;97871.16;4955154;28;20054;-68
2023/08/11 07:33:25;;;;;;;26.85;9.32;;;;;;;35.92;nan;97865.56;4969666;28;20066;-69
2023/08/11 07:35:55;;;;;;;33.72;8.60;;;;;;;35.92;nan;97860.06;4951229;28;20459;-70
2023/08/11 07:38:24;;;;;;;28.48;9.40;;;;;;;35.80;nan;97857.59;4973389;28;20066;-69
2023/08/11 07:40:54;;;;;;;25.23;7.95;;;;;;;35.80;nan;97848.53;4952982;28;20038;-68
2023/08/11 07:43:23;;;;;;;29.88;8.45;;;;;;;35.46;nan;97843.00;4966475;28;20133;-69
2023/08/11 07:45:53;;;;;;;31.17;8.77;;;;;;;35.43;nan;97851.25;4971097;28;20228;-67
2023/08/11 07:48:22;;;;;;;27.60;8.30;;;;;;;35.43;nan;97846.53;4966309;28;20063;-68
2023/08/11 07:50:52;;;;;;;30.70;8.52;;;;;;;35.23;nan;97836.06;4968507;28;20046;-69
2023/08/11 07:53:21;;;;;;;25.27;7.85;;;;;;;35.45;nan;97835.91;4970511;28;20053;-69
2023/08/11 07:55:51;;;;;;;30.33;7.82;;;;;;;35.31;nan;97829.47;4968332;28;20047;-69
2023/08/11 07:58:20;;;;;;;23.88;7.38;;;;;;;35.65;nan;97830.25;4967813;28;20535;-68
2023/08/11 08:00:50;;;;;;;33.85;8.02;;;;;;;35.63;nan;97825.06;4955967;28;20081;-69
2023/08/11 08:03:19;;;;;;;34.05;9.20;;;;;;;35.43;nan;97830.00;4971848;28;20066;-68
2023/08/11 08:05:48;;;;;;;23.05;8.18;;;;;;;35.29;nan;97829.03;4970910;28;20049;-69
2023/08/11 08:08:18;;;;;;;30.48;7.85;;;;;;;35.10;nan;97829.97;4950005;28;20743;-70
2023/08/11 08:10:47;;;;;;;29.88;7.32;;;;;;;35.01;nan;97821.19;4953888;28;20050;-67
2023/08/11 08:13:17;;;;;;;32.60;7.85;;;;;;;34.92;nan;97817.97;4968275;28;20057;-66
2023/08/11 08:15:47;;;;;;;27.00;7.90;;;;;;;34.87;nan;97815.53;4966364;28;20042;-66
2023/08/11 08:18:17;;;;;;;26.20;7.13;;;;;;;34.92;nan;97815.97;4963871;28;20552;-67
2023/08/11 08:20:47;;;;;;;29.95;7.53;;;;;;;34.79;nan;97816.63;4985561;28;20045;-67
2023/08/11 08:23:17;;;;;;;29.15;8.18;;;;;;;34.84;nan;97808.81;4977820;28;20856;-67
2023/08/11 08:25:46;;;;;;;24.20;7.65;;;;;;;34.71;nan;97804.72;4973295;28;20039;-67
2023/08/11 08:28:15;;;;;;;23.83;7.05;;;;;;;34.65;nan;97801.44;4994437;28;20038;-67
2023/08/11 08:30:44;;;;;;;30.40;9.52;;;;;;;34.65;nan;97798.69;4992989;28;20149;-67
2023/08/11 08:33:14;;;;;;;27.50;8.45;;;;;;;34.55;nan;97790.31;4957764;28;20321;-68
2023/08/11 08:35:43;;;;;;;24.50;8.18;;;;;;;34.65;nan;97784.19;4984612;28;20046;-68
2023/08/11 08:38:12;;;;;;;31.77;7.75;;;;;;;34.79;nan;97794.59;4984958;28;20060;-68
2023/08/11 08:40:42;;;;;;;32.30;8.80;;;;;;;34.63;nan;97786.50;4997280;28;20054;-69
2023/08/11 08:43:11;;;;;;;34.80;9.85;;;;;;;34.63;nan;97781.78;4994895;28;20041;-67
2023/08/11 08:45:44;;;;;;;30.45;9.30;;;;;;;34.55;nan;97780.13;4947212;28;20488;-68
2023/08/11 08:48:21;;;;;;;;;;;;;;;34.45;nan;97778.00;4985897;28;20046;-68
2023/08/11 08:50:50;;;;;;;38.85;9.82;;;;;;;34.30;nan;97770.69;4988370;28;19921;-69
2023/08/11 08:53:20;;;;;;;26.02;8.20;;;;;;;34.20;nan;97763.91;4993692;28;20501;-68
2023/08/11 08:55:50;;;;;;;25.77;8.20;;;;;;;34.31;nan;97764.03;4984156;28;20051;-69
2023/08/11 08:58:19;;;;;;;28.08;8.05;;;;;;;34.35;nan;97756.63;4992068;28;20055;-68
2023/08/11 09:00:50;;;;;;;35.70;8.20;;;;;;;34.38;nan;97761.41;4993153;28;20046;-67
2023/08/11 09:03:19;;;;;;;29.75;8.65;;;;;;;34.28;nan;97753.78;4989314;28;20050;-67
2023/08/11 09:05:49;;;;;;;36.00;9.27;;;;;;;34.31;nan;97752.25;4986858;28;20805;-67
2023/08/11 09:08:18;;;;;;;31.00;8.75;;;;;;;34.27;nan;97755.75;4996843;28;20046;-66
2023/08/11 09:10:48;;;;;;;32.42;9.07;;;;;;;34.27;nan;97749.44;4992663;28;20046;-66
2023/08/11 09:13:17;;;;;;;29.65;9.30;;;;;;;34.18;nan;97748.94;4993659;28;20152;-67
2023/08/11 09:15:47;;;;;;;22.80;7.78;;;;;;;34.18;nan;97743.44;4978721;28;20050;-66
2023/08/11 09:18:17;;;;;;;29.85;8.23;;;;;;;34.10;nan;97745.25;4999386;28;20046;-69
2023/08/11 09:20:49;;;;;;;39.03;9.20;;;;;;;34.17;nan;97745.38;4992399;28;20050;-68
2023/08/11 09:23:19;;;;;;;33.63;6.93;;;;;;;34.32;nan;97732.63;4985934;28;20047;-68
2023/08/11 09:25:54;;;;;;;32.73;8.87;;;;;;;34.55;nan;97741.59;4961784;28;20069;-69
2023/08/11 09:28:25;;;;;;;29.85;8.10;;;;;;;34.66;nan;97736.25;4965740;28;20046;-70
2023/08/11 09:30:55;;;;;;;22.80;7.93;;;;;;;34.65;nan;97735.41;4982615;28;20061;-69
2023/08/11 09:33:25;;;;;;;28.15;9.15;;;;;;;34.65;nan;97732.69;4985318;28;20050;-69
2023/08/11 09:35:55;;;;;;;28.60;8.38;;;;;;;34.64;nan;97733.06;4967039;28;20054;-72
2023/08/11 09:38:26;;;;;;;35.33;8.23;;;;;;;34.52;nan;97727.81;4981939;28;20200;-69
2023/08/11 09:41:01;;;;;;;29.42;7.90;;;;;;;34.57;nan;97722.75;4995763;28;20416;-68
2023/08/11 09:43:31;;;;;;;27.33;9.73;;;;;;;34.63;nan;97721.28;4995495;28;20109;-69
2023/08/11 09:46:01;;;;;;;23.17;7.35;;;;;;;34.69;nan;97722.56;4970186;28;20386;-67
2023/08/11 09:48:31;;;;;;;28.80;8.45;;;;;;;34.51;nan;97713.25;4961126;28;20062;-66
2023/08/11 09:51:04;;;;;;;34.45;10.55;;;;;;;34.44;nan;97713.16;4987428;28;20052;-66
2023/08/11 09:53:39;;;;;;;30.45;9.38;;;;;;;34.41;nan;97713.91;4975037;28;20060;-67
2023/08/11 09:56:12;;;;;;;38.30;9.88;;;;;;;34.41;nan;97708.41;4974243;28;20134;-67
2023/08/11 09:58:46;;;;;;;28.77;9.13;;;;;;;34.38;nan;97709.16;4967462;28;20415;-64
2023/08/11 10:01:17;;;;;;;34.90;10.25;;;;;;;34.49;nan;97699.06;4985501;28;20073;-64
2023/08/11 10:03:49;;;;;;;26.50;9.35;;;;;;;34.48;nan;97703.00;4990219;28;20583;-65
2023/08/11 10:06:27;;;;;;;29.50;9.15;;;;;;;34.45;nan;97702.94;4982647;28;20505;-64
2023/08/11 10:09:02;;;;;;;30.23;9.98;;;;;;;34.41;nan;97697.41;4995001;28;20050;-63
2023/08/11 10:11:35;;;;;;;33.75;9.65;;;;;;;34.36;nan;97696.94;4991058;28;20038;-64
2023/08/11 10:14:05;;;;;;;28.77;9.30;;;;;;;34.26;nan;97690.13;4988609;28;20394;-65
2023/08/11 10:16:35;;;;;;;38.72;10.15;;;;;;;34.16;nan;97694.34;4969071;28;20057;-64
2023/08/11 10:19:04;;;;;;;33.75;9.75;;;;;;;34.11;nan;97686.38;4993759;28;20038;-65
2023/08/11 10:21:35;;;;;;;21.77;9.13;;;;;;;34.07;nan;97684.75;4987252;28;20397;-64
2023/08/11 10:24:06;;;;;;;34.45;10.45;;;;;;;34.04;nan;97686.25;4988974;28;20054;-64
2023/08/11 10:26:36;;;;;;;33.40;9.15;;;;;;;33.97;nan;97677.13;4986883;28;20050;-64
2023/08/11 10:29:07;;;;;;;26.67;9.35;;;;;;;33.89;nan;97683.69;4992938;28;20084;-63
2023/08/11 10:31:36;;;;;;;36.60;9.75;;;;;;;33.92;nan;97680.19;4642138;28;10000664;-64
2023/08/11 10:34:06;;;;;;;34.38;12.93;;;;;;;33.91;nan;97681.34;4978245;28;20796;-64
2023/08/11 10:36:37;;;;;;;27.10;10.65;;;;;;;33.87;nan;97672.25;4984163;28;20136;-66
2023/08/11 10:39:07;;;;;;;33.03;9.30;;;;;;;33.77;nan;97673.69;4988747;28;20477;-64
2023/08/11 10:41:36;;;;;;;25.75;10.40;;;;;;;33.72;nan;97674.81;4964958;28;20049;-66
2023/08/11 10:44:05;;;;;;;29.73;10.30;;;;;;;33.64;nan;97673.06;4977989;28;20058;-65
2023/08/11 10:46:36;;;;;;;32.67;11.68;;;;;;;33.53;nan;97668.59;4980025;28;20046;-65
2023/08/11 10:49:08;;;;;;;27.67;11.23;;;;;;;33.49;nan;97662.25;4979955;28;20065;-66
2023/08/11 10:51:39;;;;;;;33.38;12.73;;;;;;;33.53;nan;97661.13;4989097;28;20136;-66
2023/08/11 10:54:24;;;;;;;26.85;10.48;;;;;;;33.54;nan;97660.00;4978161;28;20157;-66
2023/08/11 10:56:54;;;;;;;27.67;10.18;;;;;;;33.57;nan;97656.50;4993298;28;20042;-65
2023/08/11 10:59:31;;;;;;;28.73;10.13;;;;;;;33.59;nan;97651.41;5000679;28;20070;-65
2023/08/11 11:02:01;;;;;;;26.75;9.55;;;;;;;33.57;nan;97650.22;4980576;28;20050;-66
2023/08/11 11:04:32;;;;;;;24.15;9.45;;;;;;;33.53;nan;97647.41;4980540;28;20054;-67
2023/08/11 11:07:04;;;;;;;27.27;8.57;;;;;;;33.63;nan;97644.03;4987512;28;20157;-65
2023/08/11 11:09:34;;;;;;;26.40;9.57;;;;;;;33.65;nan;97646.41;4981434;28;20046;-66
2023/08/11 11:12:03;;;;;;;22.60;8.55;;;;;;;33.58;nan;97651.81;4983648;28;20061;-65
2023/08/11 11:14:32;;;;;;;33.20;9.27;;;;;;;33.45;nan;97647.66;4982636;28;20121;-64
2023/08/11 11:17:03;;;;;;;30.70;9.27;;;;;;;33.39;nan;97653.47;4991416;28;20049;-65
2023/08/11 11:19:33;;;;;;;23.58;9.73;;;;;;;33.32;nan;97655.31;4982622;28;20128;-65
2023/08/11 11:22:02;;;;;;;29.45;8.82;;;;;;;33.28;nan;97649.72;4981640;28;20748;-65
2023/08/11 11:24:32;;;;;;;29.02;9.30;;;;;;;33.19;nan;97643.72;4980863;28;20458;-65
2023/08/11 11:27:02;;;;;;;31.80;10.88;;;;;;;33.21;nan;97640.59;4985521;28;20045;-69
2023/08/11 11:29:32;;;;;;;31.70;9.98;;;;;;;33.13;nan;97645.16;4978439;28;20061;-68
2023/08/11 11:32:06;;;;;;;31.98;10.40;;;;;;;32.81;nan;97644.56;4935857;28;20046;-65
2023/08/11 11:34:37;;;;;;;29.77;10.23;;;;;;;32.29;nan;97639.59;4963924;28;20055;-65
2023/08/11 11:37:06;;;;;;;28.50;9.68;;;;;;;31.74;nan;97628.97;4984056;28;20143;-65
2023/08/11 11:39:36;;;;;;;26.33;9.43;;;;;;;31.45;nan;97624.75;4981956;28;20058;-66
2023/08/11 11:42:06;;;;;;;24.42;10.23;;;;;;;31.25;nan;97634.81;4987477;28;20148;-65
2023/08/11 11:44:37;;;;;;;27.52;10.55;;;;;;;30.93;nan;97639.47;4973224;28;20041;-65
2023/08/11 11:47:06;;;;;;;30.05;10.23;;;;;;;30.90;nan;97640.16;4981729;28;20057;-64
2023/08/11 11:49:36;;;;;;;24.38;11.13;;;;;;;30.70;nan;97638.47;4960040;28;20201;-63
2023/08/11 11:52:06;;;;;;;29.05;11.57;;;;;;;30.58;nan;97635.78;4983243;28;20058;-65
2023/08/11 11:54:36;;;;;;;33.00;13.25;;;;;;;30.51;nan;97643.78;4971862;28;20054;-65
2023/08/11 11:57:06;;;;;;;27.02;11.70;;;;;;;30.00;nan;97648.94;4985442;28;20054;-64